Time;durP1;ratioP1;P1;durP2;ratioP2;P2;SDS_P1;SDS_P2;PMS_P1;PMS_P2;Temp;Humidity;BMP_temperature;BMP_pressure;BME280_temperature;BME280_humidity;BME280_pressure;Samples;Min_cycle;Max_cycle;Signal;HPM_P1;HPM_P2
2022/05/03 00:01:34;;;;;;;;;;;;;;;16.94;49.87;99712.91;4399708;32;20016;-83
2022/05/03 00:04:20;;;;;;;;;;;;;;;17.08;49.47;99707.53;4392900;32;20021;-84
2022/05/03 00:07:07;;;;;;;;;;;;;;;17.02;49.82;99716.31;4399690;32;19993;-84
2022/05/03 00:09:52;;;;;;;;;;;;;;;16.91;50.05;99710.34;4400222;32;20010;-81
2022/05/03 00:12:24;;;;;;;;;;;;;;;16.93;50.07;99713.81;4399950;32;20045;-83
2022/05/03 00:14:53;;;;;;;;;;;;;;;16.91;49.99;99712.97;4402865;32;20026;-83
2022/05/03 00:17:19;;;;;;;;;;;;;;;16.86;50.41;99701.72;4402103;32;19966;-81
2022/05/03 00:19:46;;;;;;;;;;;;;;;16.84;50.30;99706.06;4398455;32;20008;-83
2022/05/03 00:22:13;;;;;;;;;;;;;;;16.85;50.23;99707.81;4396798;32;20004;-82
2022/05/03 00:24:41;;;;;;;;;;;;;;;16.80;49.24;99704.37;4399057;32;19970;-81
2022/05/03 00:27:08;;;;;;;;;;;;;;;17.01;49.79;99706.75;4402684;32;19978;-81
2022/05/03 00:29:35;;;;;;;;;;;;;;;16.97;50.03;99702.44;4398388;32;20399;-82
2022/05/03 00:32:02;;;;;;;;;;;;;;;16.86;50.62;99704.31;4402552;32;20399;-81
2022/05/03 00:34:35;;;;;;;;;;;;;;;16.60;51.29;99692.38;4393768;32;20095;-81
2022/05/03 00:37:02;;;;;;;;;;;;;;;16.77;50.29;99694.81;4401211;32;20664;-82
2022/05/03 00:39:29;;;;;;;;;;;;;;;16.71;49.80;99695.72;4400499;32;19997;-83
2022/05/03 00:41:59;;;;;;;;;;;;;;;16.82;50.45;99697.41;4400464;32;19983;-81
2022/05/03 00:47:15;;;;;;;;;;;;;;;16.81;50.76;99695.66;4397959;32;20062;-81
2022/05/03 00:49:42;;;;;;;;;;;;;;;16.77;51.01;99696.59;4399955;32;20028;-81
2022/05/03 00:52:12;;;;;;;;;;;;;;;16.74;51.06;99694.81;4393950;32;20378;-82
2022/05/03 00:54:47;;;;;;;;;;;;;;;16.72;51.08;99701.84;4398788;32;20634;-82
2022/05/03 00:57:23;;;;;;;;;;;;;;;16.76;50.67;99693.09;4393949;32;19996;-82
2022/05/03 01:00:09;;;;;;;;;;;;;;;16.64;51.16;99688.84;4382136;32;19991;-81
2022/05/03 01:02:39;;;;;;;;;;;;;;;16.70;51.51;99687.91;4387853;32;20015;-81
2022/05/03 01:05:12;;;;;;;;;;;;;;;16.62;51.86;99690.59;4391653;32;19982;-82
2022/05/03 01:07:54;;;;;;;;;;;;;;;16.66;51.73;99687.09;4384785;32;20046;-81
2022/05/03 01:10:27;;;;;;;;;;;;;;;16.63;51.17;99691.47;4385226;32;20370;-80
2022/05/03 01:12:57;;;;;;;;;;;;;;;16.75;51.05;99691.34;4394219;32;20088;-81
2022/05/03 01:15:25;;;;;;;;;;;;;;;16.69;50.69;99692.28;4393110;32;20410;-81
2022/05/03 01:18:02;;;;;;;;;;;;;;;16.72;50.44;99694.88;4383291;32;19990;-83
2022/05/03 01:20:30;;;;;;;;;;;;;;;16.52;51.18;99694.19;4369633;32;20264;-83
2022/05/03 01:23:06;;;;;;;;;;;;;;;16.62;51.17;99701.03;4397251;32;19991;-81
2022/05/03 01:25:35;;;;;;;;;;;;;;;16.83;49.88;99693.91;4399054;32;19970;-81
2022/05/03 01:28:21;;;;;;;;;;;;;;;16.63;50.10;99692.34;4399578;32;19977;-81
2022/05/03 01:30:49;;;;;;;;;;;;;;;16.70;49.93;99695.75;4399758;32;20345;-82
2022/05/03 01:33:16;;;;;;;;;;;;;;;16.44;51.55;99701.25;4397756;32;20084;-81
2022/05/03 01:35:44;;;;;;;;;;;;;;;16.65;50.96;99695.78;4398596;32;19996;-81
2022/05/03 01:38:11;;;;;;;;;;;;;;;16.54;51.42;99697.66;4398363;32;20077;-82
2022/05/03 01:40:43;;;;;;;;;;;;;;;16.46;51.67;99694.25;4399932;32;19982;-82
2022/05/03 01:43:25;;;;;;;;;;;;;;;16.37;51.65;99695.22;4396922;32;19998;-80
2022/05/03 01:45:58;;;;;;;;;;;;;;;16.40;51.54;99689.09;4383014;32;20371;-81
2022/05/03 01:50:18;;;;;;;;;;;;;;;16.60;50.42;99695.00;4396792;32;20054;-83
2022/05/03 01:51:20;;;;;;;;;;;;;;;16.33;51.69;99692.66;4398758;32;20041;-83
2022/05/03 01:53:46;;;;;;;;;;;;;;;16.41;51.20;99698.69;4396188;32;20038;-82
2022/05/03 01:56:14;;;;;;;;;;;;;;;16.37;51.42;99696.97;4397281;32;20020;-83
2022/05/03 01:58:49;;;;;;;;;;;;;;;16.23;52.11;99695.34;4399348;32;20025;-82
2022/05/03 02:01:19;;;;;;;;;;;;;;;16.15;52.27;99694.56;4401251;32;19978;-83
2022/05/03 02:03:50;;;;;;;;;;;;;;;16.23;52.17;99697.97;4399208;32;19997;-80
2022/05/03 02:06:32;;;;;;;;;;;;;;;16.34;51.51;99695.25;4399725;32;19978;-82
2022/05/03 02:09:05;;;;;;;;;;;;;;;16.16;52.38;99691.06;4398574;32;20005;-81
2022/05/03 02:11:52;;;;;;;;;;;;;;;16.16;52.41;99691.06;4393870;32;20368;-81
2022/05/03 02:17:28;;;;;;;;;;;;;;;16.05;52.67;99698.16;4395648;32;19993;-83
2022/05/03 02:19:55;;;;;;;;;;;;;;;16.01;52.55;99691.19;4401056;32;20002;-81
2022/05/03 02:22:41;;;;;;;;;;;;;;;16.20;51.91;99697.97;4400446;32;20057;-81
2022/05/03 02:25:12;;;;;;;;;;;;;;;16.19;51.94;99696.25;4401007;32;19986;-81
2022/05/03 02:27:49;;;;;;;;;;;;;;;16.26;51.50;99694.47;4400462;32;19982;-81
2022/05/03 02:30:16;;;;;;;;;;;;;;;16.20;51.42;99702.34;4400105;32;20041;-81
2022/05/03 02:32:49;;;;;;;;;;;;;;;16.10;52.02;99691.13;4399373;32;20357;-82
2022/05/03 02:35:22;;;;;;;;;;;;;;;16.01;52.42;99692.06;4401195;32;20002;-81
2022/05/03 02:37:49;;;;;;;;;;;;;;;15.97;52.12;99700.81;4400166;32;19950;-80
2022/05/03 02:40:18;;;;;;;;;;;;;;;16.00;52.23;99694.69;4399580;32;20012;-80
2022/05/03 02:42:45;;;;;;;;;;;;;;;15.90;52.53;99698.25;4400646;32;20061;-80
2022/05/03 02:45:12;;;;;;;;;;;;;;;16.12;51.98;99691.97;4400943;32;19986;-80
2022/05/03 02:47:54;;;;;;;;;;;;;;;15.91;52.51;99689.53;4399799;32;19986;-80
2022/05/03 02:50:28;;;;;;;;;;;;;;;16.05;51.64;99698.16;4400657;32;20715;-81
2022/05/03 02:53:02;;;;;;;;;;;;;;;15.93;52.05;99698.25;4401234;32;19985;-81
2022/05/03 02:55:36;;;;;;;;;;;;;;;15.88;51.98;99700.00;4400431;32;20473;-80
2022/05/03 02:58:09;;;;;;;;;;;;;;;15.76;52.04;99696.63;4399272;32;20010;-81
2022/05/03 03:03:31;;;;;;;;;;;;;;;15.71;51.94;99695.78;4400228;32;20001;-81
2022/05/03 03:05:58;;;;;;;;;;;;;;;15.68;52.02;99698.41;4400028;32;20037;-81
2022/05/03 03:08:26;;;;;;;;;;;;;;;15.84;51.54;99703.53;4400914;32;20383;-82
2022/05/03 03:10:53;;;;;;;;;;;;;;;15.76;51.42;99699.25;4399641;32;20002;-81
2022/05/03 03:13:19;;;;;;;;;;;;;;;15.62;52.01;99701.03;4399390;32;20009;-81
2022/05/03 03:15:48;;;;;;;;;;;;;;;15.72;51.94;99705.34;4400140;32;20002;-80
2022/05/03 03:18:18;;;;;;;;;;;;;;;15.56;52.40;99703.69;4400657;32;20038;-81
2022/05/03 03:20:46;;;;;;;;;;;;;;;15.37;52.74;99702.91;4401085;32;19983;-81
2022/05/03 03:23:18;;;;;;;;;;;;;;;15.53;52.31;99698.47;4399692;32;20540;-82
2022/05/03 03:25:46;;;;;;;;;;;;;;;15.44;52.53;99695.91;4400389;32;20433;-83
2022/05/03 03:28:13;;;;;;;;;;;;;;;15.19;53.10;99703.91;4400912;32;20205;-81
2022/05/03 03:30:41;;;;;;;;;;;;;;;15.01;53.47;99693.56;4399650;32;20016;-81
2022/05/03 03:33:08;;;;;;;;;;;;;;;15.11;53.20;99700.44;4412274;32;19983;-81
2022/05/03 03:35:34;;;;;;;;;;;;;;;15.09;52.93;99699.56;4399430;32;19982;-81
2022/05/03 03:38:01;;;;;;;;;;;;;;;15.23;52.84;99705.59;4399410;32;19986;-82
2022/05/03 03:40:28;;;;;;;;;;;;;;;15.13;52.89;99703.94;4398796;32;19990;-81
2022/05/03 03:42:55;;;;;;;;;;;;;;;15.19;52.75;99698.69;4400287;32;21395;-81
2022/05/03 03:45:21;;;;;;;;;;;;;;;15.25;52.63;99708.19;4400489;32;20354;-82
2022/05/03 03:47:48;;;;;;;;;;;;;;;15.02;53.33;99705.69;4398937;32;19986;-82
2022/05/03 03:50:15;;;;;;;;;;;;;;;15.23;52.60;99705.59;4401054;32;20013;-81
2022/05/03 03:52:42;;;;;;;;;;;;;;;15.24;52.55;99707.34;4400688;32;20031;-82
2022/05/03 03:55:10;;;;;;;;;;;;;;;15.21;52.42;99715.16;4400709;32;20054;-82
2022/05/03 03:57:36;;;;;;;;;;;;;;;15.08;53.22;99716.09;4400453;32;20045;-80
2022/05/03 04:00:04;;;;;;;;;;;;;;;15.21;53.13;99709.94;4399037;32;19988;-81
2022/05/03 04:02:37;;;;;;;;;;;;;;;15.05;53.78;99719.59;4400822;32;20009;-81
2022/05/03 04:05:04;;;;;;;;;;;;;;;15.20;53.03;99716.06;4399203;32;20009;-80
2022/05/03 04:07:31;;;;;;;;;;;;;;;15.07;53.63;99719.59;4398802;32;20061;-81
2022/05/03 04:09:57;;;;;;;;;;;;;;;15.18;53.27;99712.56;4399286;32;20034;-82
2022/05/03 04:12:24;;;;;;;;;;;;;;;15.20;53.64;99720.41;4411294;32;20336;-82
2022/05/03 04:14:51;;;;;;;;;;;;;;;15.11;53.86;99722.16;4392680;32;20366;-82
2022/05/03 04:17:18;;;;;;;;;;;;;;;15.24;53.58;99716.91;4402784;32;19990;-81
2022/05/03 04:19:45;;;;;;;;;;;;;;;15.18;53.49;99712.56;4400966;32;20002;-82
2022/05/03 04:22:22;;;;;;;;;;;;;;;15.20;53.63;99726.47;4408952;32;20397;-81
2022/05/03 04:24:49;;;;;;;;;;;;;;;15.33;53.06;99722.06;4416117;32;20041;-81
2022/05/03 04:27:16;;;;;;;;;;;;;;;15.34;53.10;99719.44;4426539;32;19970;-80
2022/05/03 04:29:44;;;;;;;;;;;;;;;15.37;53.02;99728.13;4414934;32;20060;-79
2022/05/03 04:32:12;;;;;;;;;;;;;;;15.56;52.88;99724.53;4416062;32;20037;-81
2022/05/03 04:34:38;;;;;;;;;;;;;;;15.52;53.00;99723.69;4426831;32;19982;-82
2022/05/03 04:37:06;;;;;;;;;;;;;;;15.71;51.86;99724.50;4415691;32;19986;-84
2022/05/03 04:39:33;;;;;;;;;;;;;;;15.67;52.11;99728.00;4416020;32;20029;-81
2022/05/03 04:42:00;;;;;;;;;;;;;;;15.67;52.57;99728.00;4427034;32;20317;-81
2022/05/03 04:44:27;;;;;;;;;;;;;;;15.67;52.05;99725.41;4415410;32;21067;-80
2022/05/03 04:46:54;;;;;;;;;;;;;;;15.72;52.13;99726.22;4415566;32;20042;-80
2022/05/03 04:49:21;;;;;;;;;;;;;;;15.74;51.86;99724.47;4414386;32;20031;-80
2022/05/03 04:51:48;;;;;;;;;;;;;;;15.81;52.44;99726.16;4415021;32;19997;-80
2022/05/03 04:54:15;;;;;;;;;;;;;;;16.00;51.80;99728.63;4414324;32;20005;-81
2022/05/03 04:56:45;;;;;;;;;;;;;;;16.02;52.25;99729.50;4414927;32;19974;-80
2022/05/03 04:59:12;;;;;;;;;;;;;;;16.12;51.99;99731.16;4414047;32;19996;-81
2022/05/03 05:01:39;;;;;;;;;;;;;;;16.13;52.50;99735.47;4415148;32;19993;-80
2022/05/03 05:04:06;;;;;;;;;;;;;;;16.18;51.16;99741.56;4414807;32;20031;-81
2022/05/03 05:06:33;;;;;;;;;;;;;;;16.24;51.03;99738.88;4415188;32;20331;-89
2022/05/03 05:09:00;;;;;;;;;;;;;;;16.02;51.40;99748.63;4413570;32;20376;-81
2022/05/03 05:11:27;;;;;;;;;;;;;;;16.32;50.94;99735.34;4414513;32;20054;-82
2022/05/03 05:13:54;;;;;;;;;;;;;;;16.35;50.69;99741.41;4413099;32;20031;-82
2022/05/03 05:16:21;;;;;;;;;;;;;;;16.48;50.35;99742.16;4414751;32;19982;-82
2022/05/03 05:18:48;;;;;;;;;;;;;;;16.60;50.14;99749.87;4414557;32;19998;-80
2022/05/03 05:21:15;;;;;;;;;;;;;;;16.70;50.90;99748.87;4408276;32;20054;-85
2022/05/03 05:23:42;;;;;;;;;;;;;;;16.85;50.30;99744.44;4399051;32;20005;-84
2022/05/03 05:26:08;;;;;;;;;;;;;;;16.98;49.32;99738.19;4398928;32;19997;-88
2022/05/03 05:28:35;;;;;;;;;;;;;;;16.94;49.67;99739.06;4399556;32;19997;-81
2022/05/03 05:31:02;;;;;;;;;;;;;;;17.01;49.88;99730.28;4398922;32;20482;-84
2022/05/03 05:33:29;;;;;;;;;;;;;;;17.18;49.38;99730.94;4399916;32;19986;-84
2022/05/03 05:35:56;;;;;;;;;;;;;;;17.35;49.27;99735.09;4399538;32;20315;-85
2022/05/03 05:38:23;;;;;;;;;;;;;;;17.42;49.29;99736.72;4399650;32;20298;-86
2022/05/03 05:40:51;;;;;;;;;;;;;;;17.51;49.86;99733.97;4399137;32;19990;-82
2022/05/03 05:43:19;;;;;;;;;;;;;;;17.68;48.67;99733.75;4384455;32;19986;-84
2022/05/03 05:45:48;;;;;;;;;;;;;;;17.69;48.65;99734.63;4381545;32;20025;-86
2022/05/03 05:48:16;;;;;;;;;;;;;;;17.78;48.62;99738.00;4384845;32;20037;-86
2022/05/03 05:50:43;;;;;;;;;;;;;;;17.86;48.14;99740.50;4397322;32;19974;-86
2022/05/03 05:55:55;;;;;;;;;;;;;;;18.01;48.09;99729.78;4400304;32;20046;-87
2022/05/03 05:58:22;;;;;;;;;;;;;;;18.06;48.04;99737.56;4400805;32;20081;-83
2022/05/03 06:00:49;;;;;;;;;;;;;;;18.27;47.90;99733.72;4400552;32;20446;-82
2022/05/03 06:03:16;;;;;;;;;;;;;;;18.03;47.90;99735.88;4400437;32;20812;-81
2022/05/03 06:05:43;;;;;;;;;;;;;;;18.31;47.39;99730.16;4400884;32;19974;-85
2022/05/03 06:08:10;;;;;;;;;;;;;;;18.31;47.45;99735.41;4401096;32;19990;-82
2022/05/03 06:10:37;;;;;;;;;;;;;;;18.52;46.94;99727.16;4400739;32;19994;-85
2022/05/03 06:13:04;;;;;;;;;;;;;;;18.43;47.48;99729.94;4400438;32;20004;-81
2022/05/03 06:15:31;;;;;;;;;;;;;;;18.66;47.20;99731.28;4400252;32;20010;-83
2022/05/03 06:17:58;;;;;;;;;;;;;;;18.78;47.14;99728.47;4399359;32;21261;-88
2022/05/03 06:20:25;;;;;;;;;;;;;;;19.13;46.63;99727.75;4399935;32;19979;-89
2022/05/03 06:22:51;;;;;;;;;;;;;;;19.31;46.08;99731.78;4400233;32;20047;-90
2022/05/03 06:25:19;;;;;;;;;;;;;;;19.44;45.80;99737.62;4400625;32;19978;-84
2022/05/03 06:27:45;;;;;;;;;;;;;;;19.63;45.46;99733.69;4399518;32;20429;-86
2022/05/03 06:30:12;;;;;;;;;;;;;;;19.73;45.66;99729.13;4396380;32;20041;-89
2022/05/03 06:32:43;;;;;;;;;;;;;;;19.80;45.33;99741.22;4400963;32;19978;-89
2022/05/03 06:35:13;;;;;;;;;;;;;;;20.05;44.81;99732.75;4382210;32;20042;-82
2022/05/03 06:37:42;;;;;;;;;;;;;;;20.54;44.21;99739.41;4389744;32;20425;-85
2022/05/03 06:40:10;;;;;;;;;;;;;;;21.03;42.42;99733.69;4077857;32;10004056;-87
2022/05/03 06:42:37;;;;;;;;;;;;;;;21.17;40.92;99741.19;4379807;32;20386;-90
2022/05/03 06:45:05;;;;;;;;;;;;;;;21.67;41.18;99738.84;4377424;32;19990;-85
2022/05/03 06:47:33;;;;;;;;;;;;;;;22.08;39.61;99741.06;4372290;32;19983;-90
2022/05/03 06:50:00;;;;;;;;;;;;;;;22.23;39.06;99735.31;4377500;32;20041;-89
2022/05/03 06:52:28;;;;;;;;;;;;;;;22.56;37.67;99728.03;4370566;32;19995;-88
2022/05/03 06:54:55;;;;;;;;;;;;;;;22.95;35.39;99730.19;4371090;32;19994;-84
2022/05/03 06:57:21;;;;;;;;;;;;;;;23.28;35.55;99738.62;4370097;32;20359;-85
2022/05/03 06:59:49;;;;;;;;;;;;;;;23.44;35.41;99736.28;4378310;32;19978;-86
2022/05/03 07:02:16;;;;;;;;;;;;;;;23.50;35.24;99733.41;4369115;32;19998;-86
2022/05/03 07:04:44;;;;;;;;;;;;;;;23.54;34.62;99729.72;4376273;32;20004;-84
2022/05/03 07:07:11;;;;;;;;;;;;;;;23.62;35.47;99732.94;4399851;32;19993;-84
2022/05/03 07:09:38;;;;;;;;;;;;;;;23.78;34.26;99732.34;4401860;32;20305;-87
2022/05/03 07:12:06;;;;;;;;;;;;;;;24.14;35.63;99725.56;4400743;32;20046;-84
2022/05/03 07:14:34;;;;;;;;;;;;;;;24.65;34.32;99731.38;4399432;32;20006;-83
2022/05/03 07:17:00;;;;;;;;;;;;;;;23.89;34.99;99735.41;4400239;32;20006;-85
2022/05/03 07:24:59;;;;;;;;;;;;;;;25.08;32.57;99733.87;4402957;32;20795;-82
2022/05/03 07:27:27;;;;;;;;;;;;;;;24.97;31.86;99729.94;4400203;32;19990;-82
2022/05/03 07:29:54;;;;;;;;;;;;;;;25.23;31.32;99733.22;4400180;32;19978;-85
2022/05/03 07:32:21;;;;;;;;;;;;;;;25.47;30.43;99732.09;4399145;32;19974;-82
2022/05/03 07:34:48;;;;;;;;;;;;;;;25.46;30.96;99735.69;4396210;32;19991;-86
2022/05/03 07:37:15;;;;;;;;;;;;;;;25.79;31.29;99735.00;4399423;32;19986;-84
2022/05/03 07:39:42;;;;;;;;;;;;;;;25.97;31.35;99736.81;4397137;32;20033;-87
2022/05/03 07:42:09;;;;;;;;;;;;;;;25.60;33.89;99731.53;4398532;32;19982;-83
2022/05/03 07:44:35;;;;;;;;;;;;;;;25.78;31.71;99735.94;4395197;32;20099;-83
2022/05/03 07:47:02;;;;;;;;;;;;;;;26.34;30.07;99726.13;4417124;32;19990;-84
2022/05/03 07:49:29;;;;;;;;;;;;;;;26.23;29.44;99731.12;4414637;32;19982;-87
2022/05/03 07:51:56;;;;;;;;;;;;;;;25.79;29.98;99729.72;4414870;32;19994;-82
2022/05/03 07:54:23;;;;;;;;;;;;;;;25.62;30.60;99729.66;4422977;32;20044;-87
2022/05/03 07:56:52;;;;;;;;;;;;;;;26.14;30.69;99732.47;4414941;32;20002;-83
2022/05/03 07:59:23;;;;;;;;;;;;;;;26.08;30.17;99732.75;4414660;32;19978;-86
2022/05/03 08:01:49;;;;;;;;;;;;;;;25.98;29.93;99733.22;4414776;32;20010;-82
2022/05/03 08:04:17;;;;;;;;;;;;;;;26.67;29.15;99723.56;4409336;32;19986;-82
2022/05/03 08:06:43;;;;;;;;;;;;;;;26.73;29.58;99725.91;4412128;32;20010;-86
2022/05/03 08:09:10;;;;;;;;;;;;;;;26.43;28.91;99729.19;4414246;32;20000;-84
2022/05/03 08:11:41;;;;;;;;;;;;;;;26.34;27.28;99724.34;4421894;32;20035;-84
2022/05/03 08:14:08;;;;;;;;;;;;;;;26.88;27.03;99727.75;4424392;32;20024;-82
2022/05/03 08:16:35;;;;;;;;;;;;;;;26.73;27.07;99725.91;4413002;32;19985;-82
2022/05/03 08:19:02;;;;;;;;;;;;;;;27.30;26.98;99729.06;4414774;32;19982;-82
2022/05/03 08:21:30;;;;;;;;;;;;;;;27.20;27.03;99725.19;4414725;32;19998;-83
2022/05/03 08:23:57;;;;;;;;;;;;;;;27.49;25.85;99728.06;4407641;32;20337;-83
2022/05/03 08:26:24;;;;;;;;;;;;;;;27.22;26.48;99728.66;4413851;32;19978;-82
2022/05/03 08:28:51;;;;;;;;;;;;;;;26.77;27.83;99727.47;4414422;32;20111;-82
2022/05/03 08:31:17;;;;;;;;;;;;;;;27.31;27.45;99732.56;4412491;32;20274;-81
2022/05/03 08:33:45;;;;;;;;;;;;;;;27.76;25.17;99733.63;4410793;32;20041;-81
2022/05/03 08:36:11;;;;;;;;;;;;;;;27.12;29.07;99733.56;4408714;32;19990;-83
2022/05/03 08:44:09;;;;;;;;;;;;;;;27.41;25.07;99723.19;4420142;32;20024;-82
2022/05/03 08:46:36;;;;;;;;;;;;;;;27.08;28.42;99732.00;4415186;32;19985;-85
2022/05/03 08:49:04;;;;;;;;;;;;;;;27.71;26.68;99731.22;4415694;32;19978;-82
2022/05/03 08:51:32;;;;;;;;;;;;;;;27.52;26.42;99726.09;4388721;32;20002;-83
2022/05/03 08:53:59;;;;;;;;;;;;;;;27.84;25.14;99727.91;4398993;32;19994;-82
2022/05/03 08:56:26;;;;;;;;;;;;;;;27.78;24.46;99726.44;4400019;32;20017;-82
2022/05/03 08:58:53;;;;;;;;;;;;;;;27.88;25.40;99724.13;4399594;32;20003;-82
2022/05/03 09:01:20;;;;;;;;;;;;;;;27.66;25.23;99727.97;4398726;32;19994;-82
2022/05/03 09:03:47;;;;;;;;;;;;;;;27.77;25.90;99722.94;4400236;32;20022;-83
2022/05/03 09:06:14;;;;;;;;;;;;;;;28.10;25.15;99726.41;4400140;32;20115;-82
2022/05/03 09:08:41;;;;;;;;;;;;;;;27.91;25.49;99726.59;4399661;32;19992;-86
2022/05/03 09:11:17;;;;;;;;;;;;;;;27.62;26.09;99721.09;4399801;32;19978;-84
2022/05/03 09:13:45;;;;;;;;;;;;;;;27.56;25.07;99724.09;4396514;32;20020;-84
2022/05/03 09:16:12;;;;;;;;;;;;;;;27.45;26.20;99721.22;4398563;32;20001;-81
2022/05/03 09:18:40;;;;;;;;;;;;;;;27.81;25.53;99719.16;4391394;32;19970;-81
2022/05/03 09:24:05;;;;;;;;;;;;;;;27.76;26.21;99713.22;4386435;32;20430;-85
2022/05/03 09:26:33;;;;;;;;;;;;;;;27.65;26.16;99712.97;4383112;32;20374;-82
2022/05/03 09:29:08;;;;;;;;;;;;;;;27.74;27.96;99715.09;4381947;32;19985;-80
2022/05/03 09:31:35;;;;;;;;;;;;;;;28.00;26.75;99715.44;4383150;32;19975;-80
2022/05/03 09:34:19;;;;;;;;;;;;;;;27.30;28.60;99712.25;4385407;32;19977;-79
2022/05/03 09:36:48;;;;;;;;;;;;;;;26.77;28.30;99706.22;4404687;32;20744;-82
2022/05/03 09:39:46;;;;;;;;;;;;;;;27.40;26.44;99709.97;4399693;32;19989;-80
2022/05/03 09:42:19;;;;;;;;;;;;;;;26.93;28.40;99702.75;4398477;32;19998;-80
2022/05/03 09:44:52;;;;;;;;;;;;;;;26.55;30.61;99703.00;4399804;32;20009;-80
2022/05/03 09:47:22;;;;;;;;;;;;;;;26.40;29.28;99707.25;4399192;32;19982;-81
2022/05/03 09:49:50;;;;;;;;;;;;;;;26.16;29.77;99704.03;4399619;32;19983;-80
2022/05/03 09:52:29;;;;;;;;;;;;;;;26.40;28.38;99708.09;4399173;32;20339;-80
2022/05/03 09:54:59;;;;;;;;;;;;;;;26.10;30.58;99709.66;4399272;32;19990;-80
2022/05/03 09:57:29;;;;;;;;;;;;;;;25.68;29.63;99700.19;4399241;32;20379;-81
2022/05/03 09:59:56;;;;;;;;;;;;;;;26.62;30.88;99697.25;4398785;32;19986;-81
2022/05/03 10:02:24;;;;;;;;;;;;;;;27.01;27.72;99692.56;4399438;32;19990;-82
2022/05/03 10:04:52;;;;;;;;;;;;;;;27.35;28.65;99689.81;4399178;32;20344;-88
2022/05/03 10:07:20;;;;;;;;;;;;;;;27.10;27.15;99686.75;4399378;32;20038;-82
2022/05/03 10:09:49;;;;;;;;;;;;;;;26.80;27.36;99679.50;4398459;32;19980;-82
2022/05/03 10:12:18;;;;;;;;;;;;;;;27.52;26.81;99682.69;4397428;32;19974;-80
2022/05/03 10:14:45;;;;;;;;;;;;;;;27.62;26.95;99678.56;4397404;32;20008;-80
2022/05/03 10:23:24;;;;;;;;;;;;;;;28.26;26.90;99673.97;4368038;32;20009;-80
2022/05/03 10:25:51;;;;;;;;;;;;;;;28.21;26.81;99670.75;4388648;32;20036;-84
2022/05/03 10:28:18;;;;;;;;;;;;;;;28.52;24.63;99675.09;4398865;32;19994;-81
2022/05/03 10:31:04;;;;;;;;;;;;;;;28.28;23.05;99678.25;4399094;32;19978;-85
2022/05/03 10:33:31;;;;;;;;;;;;;;;28.15;23.46;99665.78;4079950;32;10004401;-86
2022/05/03 10:35:59;;;;;;;;;;;;;;;27.34;24.39;99674.78;4370967;32;19990;-85
2022/05/03 10:38:39;;;;;;;;;;;;;;;27.42;23.93;99661.06;4369694;32;20062;-84
2022/05/03 10:41:08;;;;;;;;;;;;;;;27.02;27.12;99667.72;4370399;32;19983;-86
2022/05/03 10:43:35;;;;;;;;;;;;;;;26.60;28.25;99669.94;4360833;32;19979;-80
2022/05/03 10:46:12;;;;;;;;;;;;;;;26.63;26.76;99674.22;4371270;32;19990;-83
2022/05/03 10:48:41;;;;;;;;;;;;;;;26.44;27.16;99677.81;4369386;32;19983;-83
2022/05/03 10:51:09;;;;;;;;;;;;;;;26.21;28.07;99679.00;4370325;32;20029;-82
2022/05/03 10:53:37;;;;;;;;;;;;;;;25.83;29.11;99686.22;4370862;32;20042;-80
2022/05/03 10:56:18;;;;;;;;;;;;;;;25.59;29.11;99677.66;4369133;32;20008;-80
2022/05/03 10:58:46;;;;;;;;;;;;;;;25.51;29.81;99691.25;4355101;32;19987;-79
2022/05/03 11:01:19;;;;;;;;;;;;;;;25.08;29.80;99694.16;4356088;32;19991;-80
2022/05/03 11:03:47;;;;;;;;;;;;;;;25.38;29.59;99690.13;4366494;32;20122;-81
2022/05/03 11:06:17;;;;;;;;;;;;;;;25.23;30.57;99696.13;4370363;32;20087;-80
2022/05/03 11:14:11;;;;;;;;;;;;;;;23.83;31.66;99688.94;4387393;32;19982;-79
2022/05/03 11:16:38;;;;;;;;;;;;;;;23.43;32.91;99676.44;4394588;32;19978;-79
2022/05/03 11:19:13;;;;;;;;;;;;;;;23.52;31.34;99684.00;4391435;32;20000;-80
2022/05/03 11:21:40;;;;;;;;;;;;;;;23.12;32.72;99679.41;4393521;32;19982;-80
2022/05/03 11:24:19;;;;;;;;;;;;;;;22.63;29.91;99668.84;4397621;32;19978;-81
2022/05/03 11:26:48;;;;;;;;;;;;;;;22.67;29.69;99673.09;4400768;32;20049;-79
2022/05/03 11:29:15;;;;;;;;;;;;;;;22.54;29.65;99671.81;4399491;32;19982;-80
2022/05/03 11:31:45;;;;;;;;;;;;;;;22.65;29.35;99664.38;4400406;32;20013;-81
2022/05/03 11:34:12;;;;;;;;;;;;;;;22.60;30.15;99671.59;4400421;32;19974;-82
2022/05/03 11:36:50;;;;;;;;;;;;;;;22.60;31.09;99676.03;4397216;32;19999;-82
2022/05/03 11:39:17;;;;;;;;;;;;;;;22.65;29.90;99669.62;4398185;32;19986;-81
2022/05/03 11:41:44;;;;;;;;;;;;;;;22.52;31.95;99674.50;4391915;32;20057;-81
2022/05/03 11:44:11;;;;;;;;;;;;;;;22.23;33.26;99682.56;4390884;32;19974;-82
2022/05/03 11:46:39;;;;;;;;;;;;;;;22.11;34.73;99677.69;4393215;32;20328;-82
2022/05/03 11:49:07;;;;;;;;;;;;;;;22.51;33.47;99661.38;4392454;32;19982;-82
2022/05/03 11:57:23;;;;;;;;;;;;;;;22.82;33.27;99655.00;4397787;32;20312;-83
2022/05/03 11:59:51;;;;;;;;;;;;;;;22.77;32.91;99641.94;4399995;32;20025;-82
2022/05/03 12:02:20;;;;;;;;;;;;;;;23.17;32.92;99646.62;4396114;32;19992;-83
2022/05/03 12:05:17;;;;;;;;;;;;;;;23.34;31.71;99645.09;4399635;32;19973;-84
2022/05/03 12:07:48;;;;;;;;;;;;;;;23.62;29.89;99636.94;4394025;32;20005;-83
2022/05/03 12:10:25;;;;;;;;;;;;;;;23.65;31.93;99631.53;4397019;32;20089;-85
2022/05/03 12:13:08;;;;;;;;;;;;;;;24.14;30.17;99624.19;4392746;32;19986;-83
2022/05/03 12:15:36;;;;;;;;;;;;;;;24.51;29.61;99630.56;4397854;32;20025;-83
2022/05/03 12:18:09;;;;;;;;;;;;;;;24.40;30.39;99631.00;4393540;32;20010;-83
2022/05/03 12:20:40;;;;;;;;;;;;;;;24.71;28.28;99635.81;4389834;32;20722;-82
2022/05/03 12:23:11;;;;;;;;;;;;;;;24.88;30.47;99637.69;4390362;32;20065;-85
2022/05/03 12:25:39;;;;;;;;;;;;;;;25.15;29.74;99629.44;4397009;32;20662;-85
2022/05/03 12:28:07;;;;;;;;;;;;;;;25.38;29.12;99628.31;4400142;32;20356;-83
2022/05/03 12:30:35;;;;;;;;;;;;;;;25.23;30.92;99627.25;4398254;32;20024;-84
2022/05/03 12:33:04;;;;;;;;;;;;;;;25.26;27.59;99629.75;4400041;32;20474;-85
2022/05/03 12:35:32;;;;;;;;;;;;;;;25.26;26.80;99627.13;4400086;32;19993;-84
2022/05/03 12:38:09;;;;;;;;;;;;;;;25.27;28.58;99628.81;4386581;32;19998;-84
2022/05/03 12:41:05;;;;;;;;;;;;;;;25.23;29.61;99621.97;4385502;32;20761;-84
2022/05/03 12:43:32;;;;;;;;;;;;;;;25.48;28.56;99622.50;4392396;32;19978;-83
2022/05/03 12:46:00;;;;;;;;;;;;;;;25.51;28.63;99622.34;4399958;32;19980;-82
2022/05/03 12:48:31;;;;;;;;;;;;;;;25.46;27.48;99616.44;4400181;32;19990;-82
2022/05/03 12:50:58;;;;;;;;;;;;;;;25.28;27.00;99618.16;4400391;32;20328;-82
2022/05/03 12:53:26;;;;;;;;;;;;;;;25.17;29.31;99616.94;4399483;32;20041;-84
2022/05/03 12:55:53;;;;;;;;;;;;;;;24.87;28.98;99614.78;4397409;32;19998;-83
2022/05/03 12:58:24;;;;;;;;;;;;;;;25.05;28.89;99619.22;4398716;32;19997;-83
2022/05/03 13:00:52;;;;;;;;;;;;;;;25.31;27.64;99619.81;4399648;32;20336;-83
2022/05/03 13:03:20;;;;;;;;;;;;;;;24.98;29.20;99615.16;4398588;32;20021;-83
2022/05/03 13:05:47;;;;;;;;;;;;;;;25.29;29.40;99605.78;4399610;32;20008;-84
2022/05/03 13:08:15;;;;;;;;;;;;;;;25.85;26.23;99604.81;4399515;32;19992;-82
2022/05/03 13:10:42;;;;;;;;;;;;;;;25.87;26.47;99597.59;4399950;32;20005;-80
2022/05/03 13:13:09;;;;;;;;;;;;;;;26.08;26.52;99600.13;4399854;32;19990;-80
2022/05/03 13:15:38;;;;;;;;;;;;;;;26.14;24.23;99594.50;4398993;32;19988;-80
2022/05/03 13:18:06;;;;;;;;;;;;;;;25.51;26.96;99603.78;4399565;32;19990;-82
2022/05/03 13:20:32;;;;;;;;;;;;;;;25.56;26.39;99605.34;4400306;32;19989;-85
2022/05/03 13:23:02;;;;;;;;;;;;;;;25.36;28.43;99611.63;4398969;32;20038;-85
2022/05/03 13:25:28;;;;;;;;;;;;;;;25.05;29.22;99608.62;4398410;32;20041;-83
2022/05/03 13:27:56;;;;;;;;;;;;;;;25.00;28.79;99615.06;4398937;32;20299;-84
2022/05/03 13:30:23;;;;;;;;;;;;;;;24.99;26.61;99614.22;4399121;32;19994;-85
2022/05/03 13:32:50;;;;;;;;;;;;;;;25.28;25.89;99609.38;4399288;32;20061;-83
2022/05/03 13:40:57;;;;;;;;;;;;;;;25.39;24.38;99593.78;4399301;32;20044;-86
2022/05/03 13:43:24;;;;;;;;;;;;;;;25.33;28.81;99596.72;4399809;32;19990;-83
2022/05/03 13:45:51;;;;;;;;;;;;;;;25.86;27.08;99597.69;4398281;32;20750;-82